Terminal Aerodrome Forecast
Issued by NWS

Home | Current Version | Previous Version | Text Only | Print | Product List | Glossary Off
Versions: 1 2 3 4 5 6 7 8 9 10 11 12 13 14 15 16 17 18 19 20 21 22 23 24

000
FTUS42 KMHX 312016 AAA
TAFISO
TAF AMD
KISO 312016Z 3120/0118 12005KT P6SM VCSH BKN014 BKN060
     FM312300 00000KT P6SM OVC010
     FM010600 00000KT 4SM BR OVC007
      TEMPO 0108/0112 1SM BR OVC003
     FM011500 VRB03KT P6SM BKN025
      AMD LTD TO CLD VIS AND WIND=

USA.gov is the U.S. government's official web portal to all federal, state and local government web resources and services.